Alyeska Resort Wx Sites
Hourly Roundup from Summit Site
ALYSUM 11/24/2014
Click Here to View Graph!

        DATE  TIME   Air  Wind  Wind  Wind   Rel  BATT Solar
                    Temp   Spd   Dir  Gust  Hum%  Volt Watts
                      F   AVG   AVG   MAX   AVG   AVG    M

  11/24/2014 10:00    27     9    86    16    97 12.74  4.67
  11/24/2014 09:00    27     9    85    15    96 12.73  0.12
  11/24/2014 08:00    27     9    80    15    99 12.74  0.00
  11/24/2014 07:00    27     7    89    16    98 12.75  0.00
  11/24/2014 06:00    27    12    86    22    96 12.77  0.00
  11/24/2014 05:00    27    13    83    20    96 12.78  0.00
  11/24/2014 04:00    27    13    80    21    95 12.81  0.00
  11/24/2014 03:00    26    12    87    22    96 12.83  0.00
  11/24/2014 02:00    26    11    82    22    95 12.86  0.00
  11/24/2014 01:00    26    10    85    19    98 12.89  0.00
  11/23/2014 24:00    26    12    90    19    98 12.92  0.00
  11/23/2014 23:00    26     9    97    19   100 12.95  0.00
  11/23/2014 22:00    26     6   103    23    99 12.98  0.00
  11/23/2014 21:00    26    10    87    24   100 13.01  0.00
  11/23/2014 20:00    26     8    78    22   100 13.04  0.00
  11/23/2014 19:00    26     6    70    19   100 13.08  0.00
  11/23/2014 18:00    27     7    62    18   100 13.14  0.00
  11/23/2014 17:00    27    10    82    23    99 13.24  0.92
  11/23/2014 16:00    26    11    83    20    99 13.49 16.32
  11/23/2014 15:00    27     9    89    21   100 13.72 45.27
  11/23/2014 14:00    27    10    82    22    99 13.86 68.49
  11/23/2014 13:00    27     7    90    17    99 14.31 83.50
  11/23/2014 12:00    27     7    93    16   100 13.51 63.42
  11/23/2014 11:00    26     9    91    18   100 12.89 23.52


Click Here to View Graph!